sensor_id;sensor_type;location;lat;lon;timestamp;temperature;humidity
9699;DHT22;10089;47.876;8.346;2023-12-14T00:00:35;2.90;99.90
9699;DHT22;10089;47.876;8.346;2023-12-14T00:03:01;2.60;99.90
9699;DHT22;10089;47.876;8.346;2023-12-14T00:05:26;2.30;99.90
9699;DHT22;10089;47.876;8.346;2023-12-14T00:07:52;3.00;99.90
9699;DHT22;10089;47.876;8.346;2023-12-14T00:10:18;2.80;99.90
9699;DHT22;10089;47.876;8.346;2023-12-14T00:12:44;4.70;99.90
9699;DHT22;10089;47.876;8.346;2023-12-14T00:15:09;3.00;99.90
9699;DHT22;10089;47.876;8.346;2023-12-14T00:17:35;2.30;99.90
9699;DHT22;10089;47.876;8.346;2023-12-14T00:20:01;2.80;99.90
9699;DHT22;10089;47.876;8.346;2023-12-14T00:22:26;2.60;99.90
9699;DHT22;10089;47.876;8.346;2023-12-14T00:24:52;2.30;99.90
9699;DHT22;10089;47.876;8.346;2023-12-14T00:27:18;2.60;99.90
9699;DHT22;10089;47.876;8.346;2023-12-14T00:29:43;2.00;99.90
9699;DHT22;10089;47.876;8.346;2023-12-14T00:32:09;2.60;99.90
9699;DHT22;10089;47.876;8.346;2023-12-14T00:34:34;2.60;99.90
9699;DHT22;10089;47.876;8.346;2023-12-14T00:37:00;2.50;99.90
9699;DHT22;10089;47.876;8.346;2023-12-14T00:39:26;1.90;99.90
9699;DHT22;10089;47.876;8.346;2023-12-14T00:41:52;2.30;99.90
9699;DHT22;10089;47.876;8.346;2023-12-14T00:44:17;2.60;99.90
9699;DHT22;10089;47.876;8.346;2023-12-14T00:46:43;1.50;99.90
9699;DHT22;10089;47.876;8.346;2023-12-14T00:49:08;2.20;99.90
9699;DHT22;10089;47.876;8.346;2023-12-14T00:51:34;2.40;99.90
9699;DHT22;10089;47.876;8.346;2023-12-14T00:53:59;2.10;99.90
9699;DHT22;10089;47.876;8.346;2023-12-14T00:56:25;2.30;99.90
9699;DHT22;10089;47.876;8.346;2023-12-14T00:58:51;2.50;99.90
9699;DHT22;10089;47.876;8.346;2023-12-14T01:01:16;2.30;99.90
9699;DHT22;10089;47.876;8.346;2023-12-14T01:03:42;2.60;99.90
9699;DHT22;10089;47.876;8.346;2023-12-14T01:06:07;2.20;99.90
9699;DHT22;10089;47.876;8.346;2023-12-14T01:08:33;2.10;99.90
9699;DHT22;10089;47.876;8.346;2023-12-14T01:10:59;2.10;99.90
9699;DHT22;10089;47.876;8.346;2023-12-14T01:13:24;2.00;99.90
9699;DHT22;10089;47.876;8.346;2023-12-14T01:15:50;4.10;99.90
9699;DHT22;10089;47.876;8.346;2023-12-14T01:18:16;2.30;99.90
9699;DHT22;10089;47.876;8.346;2023-12-14T01:20:42;1.60;99.90
9699;DHT22;10089;47.876;8.346;2023-12-14T01:23:08;2.10;99.90
9699;DHT22;10089;47.876;8.346;2023-12-14T01:25:35;2.10;99.90
9699;DHT22;10089;47.876;8.346;2023-12-14T01:28:00;1.50;99.90
9699;DHT22;10089;47.876;8.346;2023-12-14T01:30:27;2.10;99.90
9699;DHT22;10089;47.876;8.346;2023-12-14T01:32:53;1.90;99.90
9699;DHT22;10089;47.876;8.346;2023-12-14T01:35:18;1.70;99.90
9699;DHT22;10089;47.876;8.346;2023-12-14T01:37:44;1.30;99.90
9699;DHT22;10089;47.876;8.346;2023-12-14T01:40:10;1.90;99.90
9699;DHT22;10089;47.876;8.346;2023-12-14T01:42:35;2.10;99.90
9699;DHT22;10089;47.876;8.346;2023-12-14T01:45:01;1.80;99.90
9699;DHT22;10089;47.876;8.346;2023-12-14T01:47:26;1.50;99.90
9699;DHT22;10089;47.876;8.346;2023-12-14T01:49:52;1.40;99.90
9699;DHT22;10089;47.876;8.346;2023-12-14T01:52:18;1.60;99.90
9699;DHT22;10089;47.876;8.346;2023-12-14T01:54:43;1.80;99.90
9699;DHT22;10089;47.876;8.346;2023-12-14T01:57:09;1.80;99.90
9699;DHT22;10089;47.876;8.346;2023-12-14T01:59:34;1.50;99.90
9699;DHT22;10089;47.876;8.346;2023-12-14T02:02:00;1.70;99.90
9699;DHT22;10089;47.876;8.346;2023-12-14T02:04:28;1.80;99.90
9699;DHT22;10089;47.876;8.346;2023-12-14T02:06:53;3.20;99.90
9699;DHT22;10089;47.876;8.346;2023-12-14T02:09:19;1.70;99.90
9699;DHT22;10089;47.876;8.346;2023-12-14T02:11:45;1.60;99.90
9699;DHT22;10089;47.876;8.346;2023-12-14T02:14:11;1.50;99.90
9699;DHT22;10089;47.876;8.346;2023-12-14T02:16:37;1.50;99.90
9699;DHT22;10089;47.876;8.346;2023-12-14T02:19:05;1.60;99.90
9699;DHT22;10089;47.876;8.346;2023-12-14T02:21:31;1.90;99.90
9699;DHT22;10089;47.876;8.346;2023-12-14T02:23:57;5.00;99.90
9699;DHT22;10089;47.876;8.346;2023-12-14T02:26:22;1.90;99.90
9699;DHT22;10089;47.876;8.346;2023-12-14T02:28:48;1.40;99.90
9699;DHT22;10089;47.876;8.346;2023-12-14T02:31:14;1.80;99.90
9699;DHT22;10089;47.876;8.346;2023-12-14T02:33:39;1.80;99.90
9699;DHT22;10089;47.876;8.346;2023-12-14T02:36:05;1.90;99.90
9699;DHT22;10089;47.876;8.346;2023-12-14T02:38:31;2.10;99.90
9699;DHT22;10089;47.876;8.346;2023-12-14T02:40:57;1.60;99.90
9699;DHT22;10089;47.876;8.346;2023-12-14T02:43:22;1.40;99.90
9699;DHT22;10089;47.876;8.346;2023-12-14T02:45:51;1.60;99.90
9699;DHT22;10089;47.876;8.346;2023-12-14T02:48:16;1.20;99.90
9699;DHT22;10089;47.876;8.346;2023-12-14T02:50:42;1.20;99.90
9699;DHT22;10089;47.876;8.346;2023-12-14T02:53:08;1.10;99.90
9699;DHT22;10089;47.876;8.346;2023-12-14T02:55:33;1.30;99.90
9699;DHT22;10089;47.876;8.346;2023-12-14T02:57:59;0.90;99.90
9699;DHT22;10089;47.876;8.346;2023-12-14T03:00:24;0.90;99.90
9699;DHT22;10089;47.876;8.346;2023-12-14T03:02:50;1.40;99.90
9699;DHT22;10089;47.876;8.346;2023-12-14T03:05:16;1.20;99.90
9699;DHT22;10089;47.876;8.346;2023-12-14T03:07:41;1.70;99.90
9699;DHT22;10089;47.876;8.346;2023-12-14T03:10:07;1.20;99.90
9699;DHT22;10089;47.876;8.346;2023-12-14T03:12:33;1.60;99.90
9699;DHT22;10089;47.876;8.346;2023-12-14T03:14:59;3.10;99.90
9699;DHT22;10089;47.876;8.346;2023-12-14T03:17:24;1.60;99.90
9699;DHT22;10089;47.876;8.346;2023-12-14T03:19:50;1.30;99.90
9699;DHT22;10089;47.876;8.346;2023-12-14T03:22:15;1.70;99.90
9699;DHT22;10089;47.876;8.346;2023-12-14T03:24:42;1.80;99.90
9699;DHT22;10089;47.876;8.346;2023-12-14T03:27:07;1.50;99.90
9699;DHT22;10089;47.876;8.346;2023-12-14T03:29:33;3.20;99.90
9699;DHT22;10089;47.876;8.346;2023-12-14T03:31:59;1.50;99.90
9699;DHT22;10089;47.876;8.346;2023-12-14T03:34:24;1.40;99.90
9699;DHT22;10089;47.876;8.346;2023-12-14T03:36:50;1.30;99.90
9699;DHT22;10089;47.876;8.346;2023-12-14T03:39:16;1.10;99.90
9699;DHT22;10089;47.876;8.346;2023-12-14T03:41:42;0.90;99.90
9699;DHT22;10089;47.876;8.346;2023-12-14T03:44:08;1.80;99.90
9699;DHT22;10089;47.876;8.346;2023-12-14T03:46:34;1.40;99.90
9699;DHT22;10089;47.876;8.346;2023-12-14T03:49:00;1.20;99.90
9699;DHT22;10089;47.876;8.346;2023-12-14T03:51:26;1.70;99.90
9699;DHT22;10089;47.876;8.346;2023-12-14T03:53:51;3.70;99.90
9699;DHT22;10089;47.876;8.346;2023-12-14T03:56:17;1.30;99.90
9699;DHT22;10089;47.876;8.346;2023-12-14T03:58:42;1.20;99.90
9699;DHT22;10089;47.876;8.346;2023-12-14T04:01:14;1.70;99.90
9699;DHT22;10089;47.876;8.346;2023-12-14T04:03:40;1.90;99.90
9699;DHT22;10089;47.876;8.346;2023-12-14T04:06:07;1.20;99.90
9699;DHT22;10089;47.876;8.346;2023-12-14T04:08:32;2.00;99.90
9699;DHT22;10089;47.876;8.346;2023-12-14T04:10:58;1.50;99.90
9699;DHT22;10089;47.876;8.346;2023-12-14T04:13:23;1.90;99.90
9699;DHT22;10089;47.876;8.346;2023-12-14T04:15:49;1.90;99.90
9699;DHT22;10089;47.876;8.346;2023-12-14T04:18:14;2.10;99.90
9699;DHT22;10089;47.876;8.346;2023-12-14T04:20:40;2.00;99.90
9699;DHT22;10089;47.876;8.346;2023-12-14T04:23:06;4.50;99.90
9699;DHT22;10089;47.876;8.346;2023-12-14T04:25:31;3.60;99.90
9699;DHT22;10089;47.876;8.346;2023-12-14T04:27:57;4.80;99.90
9699;DHT22;10089;47.876;8.346;2023-12-14T04:30:23;1.70;99.90
9699;DHT22;10089;47.876;8.346;2023-12-14T04:32:48;4.90;99.90
9699;DHT22;10089;47.876;8.346;2023-12-14T04:35:14;1.80;99.90
9699;DHT22;10089;47.876;8.346;2023-12-14T04:37:40;2.10;99.90
9699;DHT22;10089;47.876;8.346;2023-12-14T04:40:06;2.00;99.90
9699;DHT22;10089;47.876;8.346;2023-12-14T04:42:31;2.30;99.90
9699;DHT22;10089;47.876;8.346;2023-12-14T04:44:57;1.50;99.90
9699;DHT22;10089;47.876;8.346;2023-12-14T04:47:22;1.90;99.90
9699;DHT22;10089;47.876;8.346;2023-12-14T04:49:49;2.10;99.90
9699;DHT22;10089;47.876;8.346;2023-12-14T04:52:15;1.90;99.90
9699;DHT22;10089;47.876;8.346;2023-12-14T04:54:40;2.30;99.90
9699;DHT22;10089;47.876;8.346;2023-12-14T04:57:07;4.30;99.90
9699;DHT22;10089;47.876;8.346;2023-12-14T04:59:33;2.50;99.90
9699;DHT22;10089;47.876;8.346;2023-12-14T05:01:58;2.10;99.90
9699;DHT22;10089;47.876;8.346;2023-12-14T05:04:24;1.50;99.90
9699;DHT22;10089;47.876;8.346;2023-12-14T05:06:49;1.60;99.90
9699;DHT22;10089;47.876;8.346;2023-12-14T05:09:15;1.60;99.90
9699;DHT22;10089;47.876;8.346;2023-12-14T05:11:41;1.70;99.90
9699;DHT22;10089;47.876;8.346;2023-12-14T05:14:06;1.80;99.90
9699;DHT22;10089;47.876;8.346;2023-12-14T05:16:33;2.00;99.90
9699;DHT22;10089;47.876;8.346;2023-12-14T05:18:59;4.30;99.90
9699;DHT22;10089;47.876;8.346;2023-12-14T05:21:25;1.80;99.90
9699;DHT22;10089;47.876;8.346;2023-12-14T05:23:50;1.90;99.90
9699;DHT22;10089;47.876;8.346;2023-12-14T05:26:16;1.90;99.90
9699;DHT22;10089;47.876;8.346;2023-12-14T05:28:42;1.70;99.90
9699;DHT22;10089;47.876;8.346;2023-12-14T05:31:07;1.70;99.90
9699;DHT22;10089;47.876;8.346;2023-12-14T05:33:37;2.00;99.90
9699;DHT22;10089;47.876;8.346;2023-12-14T05:36:02;2.10;99.90
9699;DHT22;10089;47.876;8.346;2023-12-14T05:38:31;2.40;99.90
9699;DHT22;10089;47.876;8.346;2023-12-14T05:40:56;2.10;99.90
9699;DHT22;10089;47.876;8.346;2023-12-14T05:43:22;4.10;99.90
9699;DHT22;10089;47.876;8.346;2023-12-14T05:45:48;2.00;99.90
9699;DHT22;10089;47.876;8.346;2023-12-14T05:48:13;1.60;99.90
9699;DHT22;10089;47.876;8.346;2023-12-14T05:50:39;2.40;99.90
9699;DHT22;10089;47.876;8.346;2023-12-14T05:53:04;1.60;99.90
9699;DHT22;10089;47.876;8.346;2023-12-14T05:55:30;1.90;99.90
9699;DHT22;10089;47.876;8.346;2023-12-14T05:57:56;1.90;99.90
9699;DHT22;10089;47.876;8.346;2023-12-14T06:00:22;1.60;99.90
9699;DHT22;10089;47.876;8.346;2023-12-14T06:02:47;1.30;99.90
9699;DHT22;10089;47.876;8.346;2023-12-14T06:05:13;2.20;99.90
9699;DHT22;10089;47.876;8.346;2023-12-14T06:07:39;2.20;99.90
9699;DHT22;10089;47.876;8.346;2023-12-14T06:10:05;2.10;99.90
9699;DHT22;10089;47.876;8.346;2023-12-14T06:12:31;2.20;99.90
9699;DHT22;10089;47.876;8.346;2023-12-14T06:14:56;1.80;99.90
9699;DHT22;10089;47.876;8.346;2023-12-14T06:17:22;1.90;99.90
9699;DHT22;10089;47.876;8.346;2023-12-14T06:19:48;1.90;99.90
9699;DHT22;10089;47.876;8.346;2023-12-14T06:22:13;1.70;99.90
9699;DHT22;10089;47.876;8.346;2023-12-14T06:24:39;4.60;99.90
9699;DHT22;10089;47.876;8.346;2023-12-14T06:27:05;1.60;99.90
9699;DHT22;10089;47.876;8.346;2023-12-14T06:29:30;2.20;99.90
9699;DHT22;10089;47.876;8.346;2023-12-14T06:31:56;2.10;99.90
9699;DHT22;10089;47.876;8.346;2023-12-14T06:34:22;1.40;99.90
9699;DHT22;10089;47.876;8.346;2023-12-14T06:36:48;1.50;99.90
9699;DHT22;10089;47.876;8.346;2023-12-14T06:39:13;1.40;99.90
9699;DHT22;10089;47.876;8.346;2023-12-14T06:41:39;4.50;99.90
9699;DHT22;10089;47.876;8.346;2023-12-14T06:44:05;1.70;99.90
9699;DHT22;10089;47.876;8.346;2023-12-14T06:46:31;1.80;99.90
9699;DHT22;10089;47.876;8.346;2023-12-14T06:48:56;2.30;99.90
9699;DHT22;10089;47.876;8.346;2023-12-14T06:51:22;3.30;99.90
9699;DHT22;10089;47.876;8.346;2023-12-14T06:53:48;1.50;99.90
9699;DHT22;10089;47.876;8.346;2023-12-14T06:56:14;2.50;99.90
9699;DHT22;10089;47.876;8.346;2023-12-14T06:58:41;1.80;99.90
9699;DHT22;10089;47.876;8.346;2023-12-14T07:01:08;3.20;99.90
9699;DHT22;10089;47.876;8.346;2023-12-14T07:03:40;1.20;99.90
9699;DHT22;10089;47.876;8.346;2023-12-14T07:06:05;2.60;99.90
9699;DHT22;10089;47.876;8.346;2023-12-14T07:08:31;2.50;99.90
9699;DHT22;10089;47.876;8.346;2023-12-14T07:10:57;3.50;99.90
9699;DHT22;10089;47.876;8.346;2023-12-14T07:13:22;3.20;99.90
9699;DHT22;10089;47.876;8.346;2023-12-14T07:15:48;4.60;99.90
9699;DHT22;10089;47.876;8.346;2023-12-14T07:18:13;1.70;99.90
9699;DHT22;10089;47.876;8.346;2023-12-14T07:20:39;2.40;99.90
9699;DHT22;10089;47.876;8.346;2023-12-14T07:23:05;2.40;99.90
9699;DHT22;10089;47.876;8.346;2023-12-14T07:25:30;2.20;99.90
9699;DHT22;10089;47.876;8.346;2023-12-14T07:27:56;2.20;99.90
9699;DHT22;10089;47.876;8.346;2023-12-14T07:30:22;2.40;99.90
9699;DHT22;10089;47.876;8.346;2023-12-14T07:32:47;2.00;99.90
9699;DHT22;10089;47.876;8.346;2023-12-14T07:35:13;2.00;99.90
9699;DHT22;10089;47.876;8.346;2023-12-14T07:37:39;4.20;99.90
9699;DHT22;10089;47.876;8.346;2023-12-14T07:40:05;2.60;99.90
9699;DHT22;10089;47.876;8.346;2023-12-14T07:42:31;2.70;99.90
9699;DHT22;10089;47.876;8.346;2023-12-14T07:44:57;4.50;99.90
9699;DHT22;10089;47.876;8.346;2023-12-14T07:47:22;2.70;99.90
9699;DHT22;10089;47.876;8.346;2023-12-14T07:49:48;2.40;99.90
9699;DHT22;10089;47.876;8.346;2023-12-14T07:52:14;2.20;99.90
9699;DHT22;10089;47.876;8.346;2023-12-14T07:54:40;2.90;99.90
9699;DHT22;10089;47.876;8.346;2023-12-14T07:57:05;2.90;99.90
9699;DHT22;10089;47.876;8.346;2023-12-14T07:59:31;2.70;99.90
9699;DHT22;10089;47.876;8.346;2023-12-14T08:01:56;2.80;99.90
9699;DHT22;10089;47.876;8.346;2023-12-14T08:04:22;2.80;99.90
9699;DHT22;10089;47.876;8.346;2023-12-14T08:06:48;2.70;99.90
9699;DHT22;10089;47.876;8.346;2023-12-14T08:09:14;2.90;99.90
9699;DHT22;10089;47.876;8.346;2023-12-14T08:11:40;3.20;99.90
9699;DHT22;10089;47.876;8.346;2023-12-14T08:14:06;2.80;99.90
9699;DHT22;10089;47.876;8.346;2023-12-14T08:16:31;3.10;99.90
9699;DHT22;10089;47.876;8.346;2023-12-14T08:18:57;5.00;99.90
9699;DHT22;10089;47.876;8.346;2023-12-14T08:21:23;3.10;99.90
9699;DHT22;10089;47.876;8.346;2023-12-14T08:23:51;6.00;99.90
9699;DHT22;10089;47.876;8.346;2023-12-14T08:26:17;2.80;99.90
9699;DHT22;10089;47.876;8.346;2023-12-14T08:28:43;2.60;99.90
9699;DHT22;10089;47.876;8.346;2023-12-14T08:31:09;3.30;99.90
9699;DHT22;10089;47.876;8.346;2023-12-14T08:33:37;3.20;99.90
9699;DHT22;10089;47.876;8.346;2023-12-14T08:36:03;3.30;99.90
9699;DHT22;10089;47.876;8.346;2023-12-14T08:38:30;3.50;99.90
9699;DHT22;10089;47.876;8.346;2023-12-14T08:40:56;3.80;99.90
9699;DHT22;10089;47.876;8.346;2023-12-14T08:43:21;3.20;99.90
9699;DHT22;10089;47.876;8.346;2023-12-14T08:45:47;3.50;99.90
9699;DHT22;10089;47.876;8.346;2023-12-14T08:48:14;3.60;99.90
9699;DHT22;10089;47.876;8.346;2023-12-14T08:50:39;3.20;99.90
9699;DHT22;10089;47.876;8.346;2023-12-14T08:53:05;3.10;99.90
9699;DHT22;10089;47.876;8.346;2023-12-14T08:55:31;3.50;99.90
9699;DHT22;10089;47.876;8.346;2023-12-14T08:57:57;3.80;99.90
9699;DHT22;10089;47.876;8.346;2023-12-14T09:00:22;3.40;99.90
9699;DHT22;10089;47.876;8.346;2023-12-14T09:02:49;5.90;99.90
9699;DHT22;10089;47.876;8.346;2023-12-14T09:05:15;3.70;99.90
9699;DHT22;10089;47.876;8.346;2023-12-14T09:07:42;5.50;99.90
9699;DHT22;10089;47.876;8.346;2023-12-14T09:10:08;6.60;99.90
9699;DHT22;10089;47.876;8.346;2023-12-14T09:12:34;3.90;99.90
9699;DHT22;10089;47.876;8.346;2023-12-14T09:15:01;3.30;99.90
9699;DHT22;10089;47.876;8.346;2023-12-14T09:17:26;5.70;99.90
9699;DHT22;10089;47.876;8.346;2023-12-14T09:20:01;3.80;99.90
9699;DHT22;10089;47.876;8.346;2023-12-14T09:22:26;3.50;99.90
9699;DHT22;10089;47.876;8.346;2023-12-14T09:24:52;4.80;99.90
9699;DHT22;10089;47.876;8.346;2023-12-14T09:27:18;3.40;99.90
9699;DHT22;10089;47.876;8.346;2023-12-14T09:29:43;3.70;99.90
9699;DHT22;10089;47.876;8.346;2023-12-14T09:32:09;5.30;99.90
9699;DHT22;10089;47.876;8.346;2023-12-14T09:34:35;3.30;99.90
9699;DHT22;10089;47.876;8.346;2023-12-14T09:37:01;6.90;99.90
9699;DHT22;10089;47.876;8.346;2023-12-14T09:39:26;3.80;99.90
9699;DHT22;10089;47.876;8.346;2023-12-14T09:42:05;4.20;99.90
9699;DHT22;10089;47.876;8.346;2023-12-14T09:44:31;4.50;99.90
9699;DHT22;10089;47.876;8.346;2023-12-14T09:47:00;6.80;99.90
9699;DHT22;10089;47.876;8.346;2023-12-14T09:49:26;4.60;99.90
9699;DHT22;10089;47.876;8.346;2023-12-14T09:51:55;4.50;99.90
9699;DHT22;10089;47.876;8.346;2023-12-14T09:54:20;4.70;99.90
9699;DHT22;10089;47.876;8.346;2023-12-14T09:56:47;4.60;99.90
9699;DHT22;10089;47.876;8.346;2023-12-14T09:59:13;4.70;99.90
9699;DHT22;10089;47.876;8.346;2023-12-14T10:01:39;8.10;99.90
9699;DHT22;10089;47.876;8.346;2023-12-14T10:04:11;3.90;99.90
9699;DHT22;10089;47.876;8.346;2023-12-14T10:06:38;4.70;99.90
9699;DHT22;10089;47.876;8.346;2023-12-14T10:09:04;3.80;99.90
9699;DHT22;10089;47.876;8.346;2023-12-14T10:11:38;4.80;99.90
9699;DHT22;10089;47.876;8.346;2023-12-14T10:14:39;5.40;99.90
9699;DHT22;10089;47.876;8.346;2023-12-14T10:17:18;4.70;99.90
9699;DHT22;10089;47.876;8.346;2023-12-14T10:19:45;4.90;99.90
9699;DHT22;10089;47.876;8.346;2023-12-14T10:22:14;6.50;99.90
9699;DHT22;10089;47.876;8.346;2023-12-14T10:24:46;4.50;99.90
9699;DHT22;10089;47.876;8.346;2023-12-14T10:27:13;6.90;99.90
9699;DHT22;10089;47.876;8.346;2023-12-14T10:29:39;4.50;99.90
9699;DHT22;10089;47.876;8.346;2023-12-14T10:32:06;4.30;99.90
9699;DHT22;10089;47.876;8.346;2023-12-14T10:34:34;6.70;99.90
9699;DHT22;10089;47.876;8.346;2023-12-14T10:37:01;4.60;99.90
9699;DHT22;10089;47.876;8.346;2023-12-14T10:39:27;6.90;99.90
9699;DHT22;10089;47.876;8.346;2023-12-14T10:41:56;6.70;1.00
9699;DHT22;10089;47.876;8.346;2023-12-14T10:44:25;7.30;1.00
9699;DHT22;10089;47.876;8.346;2023-12-14T10:46:55;6.80;1.00
9699;DHT22;10089;47.876;8.346;2023-12-14T10:49:25;6.50;1.00
9699;DHT22;10089;47.876;8.346;2023-12-14T10:51:55;8.80;1.00
9699;DHT22;10089;47.876;8.346;2023-12-14T10:54:24;6.00;1.00
9699;DHT22;10089;47.876;8.346;2023-12-14T10:56:54;5.90;1.00
9699;DHT22;10089;47.876;8.346;2023-12-14T10:59:21;6.70;12.50
9699;DHT22;10089;47.876;8.346;2023-12-14T11:01:52;5.60;1.00
9699;DHT22;10089;47.876;8.346;2023-12-14T11:04:20;6.00;1.00
9699;DHT22;10089;47.876;8.346;2023-12-14T11:06:46;5.30;31.20
9699;DHT22;10089;47.876;8.346;2023-12-14T11:09:17;8.50;1.00
9699;DHT22;10089;47.876;8.346;2023-12-14T11:14:16;6.90;12.20
9699;DHT22;10089;47.876;8.346;2023-12-14T11:16:57;7.00;14.20
9699;DHT22;10089;47.876;8.346;2023-12-14T11:19:30;7.00;77.70
9699;DHT22;10089;47.876;8.346;2023-12-14T11:24:37;4.90;70.50
9699;DHT22;10089;47.876;8.346;2023-12-14T11:27:06;5.60;94.60
9699;DHT22;10089;47.876;8.346;2023-12-14T11:29:35;5.50;28.60
9699;DHT22;10089;47.876;8.346;2023-12-14T11:32:01;6.80;99.90
9699;DHT22;10089;47.876;8.346;2023-12-14T11:34:27;7.30;99.90
9699;DHT22;10089;47.876;8.346;2023-12-14T11:36:54;6.60;1.00
9699;DHT22;10089;47.876;8.346;2023-12-14T11:39:20;6.30;1.00
9699;DHT22;10089;47.876;8.346;2023-12-14T11:42:05;8.90;1.00
9699;DHT22;10089;47.876;8.346;2023-12-14T11:44:36;6.20;1.00
9699;DHT22;10089;47.876;8.346;2023-12-14T11:47:02;7.00;1.00
9699;DHT22;10089;47.876;8.346;2023-12-14T11:49:29;6.50;1.00
9699;DHT22;10089;47.876;8.346;2023-12-14T11:51:55;6.40;1.00
9699;DHT22;10089;47.876;8.346;2023-12-14T11:54:21;5.60;1.00
9699;DHT22;10089;47.876;8.346;2023-12-14T11:56:48;6.00;1.00
9699;DHT22;10089;47.876;8.346;2023-12-14T11:59:20;5.80;11.60
9699;DHT22;10089;47.876;8.346;2023-12-14T12:01:56;6.00;33.40
9699;DHT22;10089;47.876;8.346;2023-12-14T12:04:46;5.90;17.40
9699;DHT22;10089;47.876;8.346;2023-12-14T12:07:23;6.20;99.90
9699;DHT22;10089;47.876;8.346;2023-12-14T12:09:49;7.10;99.90
9699;DHT22;10089;47.876;8.346;2023-12-14T12:12:17;5.40;99.90
9699;DHT22;10089;47.876;8.346;2023-12-14T12:14:43;6.00;84.90
9699;DHT22;10089;47.876;8.346;2023-12-14T12:17:09;4.40;62.90
9699;DHT22;10089;47.876;8.346;2023-12-14T12:19:36;6.30;17.70
9699;DHT22;10089;47.876;8.346;2023-12-14T12:22:03;7.50;21.40
9699;DHT22;10089;47.876;8.346;2023-12-14T12:24:31;5.20;46.50
9699;DHT22;10089;47.876;8.346;2023-12-14T12:26:58;6.90;41.20
9699;DHT22;10089;47.876;8.346;2023-12-14T12:36:54;6.70;38.60
9699;DHT22;10089;47.876;8.346;2023-12-14T12:39:20;5.80;99.90
9699;DHT22;10089;47.876;8.346;2023-12-14T12:41:45;7.70;57.20
9699;DHT22;10089;47.876;8.346;2023-12-14T12:44:11;5.50;90.10
9699;DHT22;10089;47.876;8.346;2023-12-14T12:46:55;3.90;75.10
9699;DHT22;10089;47.876;8.346;2023-12-14T12:49:24;6.80;96.10
9699;DHT22;10089;47.876;8.346;2023-12-14T12:54:58;8.10;99.90
9699;DHT22;10089;47.876;8.346;2023-12-14T12:57:32;5.10;99.90
9699;DHT22;10089;47.876;8.346;2023-12-14T12:59:58;6.80;99.90
9699;DHT22;10089;47.876;8.346;2023-12-14T13:02:23;4.30;99.90
9699;DHT22;10089;47.876;8.346;2023-12-14T13:04:49;5.40;99.90
9699;DHT22;10089;47.876;8.346;2023-12-14T13:07:15;4.40;99.90
9699;DHT22;10089;47.876;8.346;2023-12-14T13:09:41;4.40;99.90
9699;DHT22;10089;47.876;8.346;2023-12-14T13:12:07;5.40;99.90
9699;DHT22;10089;47.876;8.346;2023-12-14T13:14:33;7.30;99.90
9699;DHT22;10089;47.876;8.346;2023-12-14T13:16:59;4.30;99.90
9699;DHT22;10089;47.876;8.346;2023-12-14T13:19:25;5.50;99.90
9699;DHT22;10089;47.876;8.346;2023-12-14T13:21:54;6.60;99.90
9699;DHT22;10089;47.876;8.346;2023-12-14T13:24:22;6.80;99.90
9699;DHT22;10089;47.876;8.346;2023-12-14T13:26:48;3.80;99.90
9699;DHT22;10089;47.876;8.346;2023-12-14T13:29:14;4.10;99.90
9699;DHT22;10089;47.876;8.346;2023-12-14T13:31:42;3.90;99.90
9699;DHT22;10089;47.876;8.346;2023-12-14T13:34:07;3.80;99.90
9699;DHT22;10089;47.876;8.346;2023-12-14T13:36:33;5.70;99.90
9699;DHT22;10089;47.876;8.346;2023-12-14T13:38:58;5.60;99.90
9699;DHT22;10089;47.876;8.346;2023-12-14T13:41:24;4.10;99.90
9699;DHT22;10089;47.876;8.346;2023-12-14T13:43:50;4.10;99.90
9699;DHT22;10089;47.876;8.346;2023-12-14T13:46:17;4.10;99.90
9699;DHT22;10089;47.876;8.346;2023-12-14T13:48:43;6.20;99.90
9699;DHT22;10089;47.876;8.346;2023-12-14T13:51:09;6.80;99.90
9699;DHT22;10089;47.876;8.346;2023-12-14T13:53:34;3.80;99.90
9699;DHT22;10089;47.876;8.346;2023-12-14T13:56:00;6.20;99.90
9699;DHT22;10089;47.876;8.346;2023-12-14T13:58:25;6.90;99.90
9699;DHT22;10089;47.876;8.346;2023-12-14T14:00:51;5.50;99.90
9699;DHT22;10089;47.876;8.346;2023-12-14T14:03:17;5.10;99.90
9699;DHT22;10089;47.876;8.346;2023-12-14T14:05:42;6.50;99.90
9699;DHT22;10089;47.876;8.346;2023-12-14T14:08:12;5.50;99.90
9699;DHT22;10089;47.876;8.346;2023-12-14T14:10:37;6.20;99.90
9699;DHT22;10089;47.876;8.346;2023-12-14T14:13:03;5.90;99.90
9699;DHT22;10089;47.876;8.346;2023-12-14T14:15:29;6.40;99.90
9699;DHT22;10089;47.876;8.346;2023-12-14T14:17:55;6.50;99.90
9699;DHT22;10089;47.876;8.346;2023-12-14T14:20:23;5.30;99.90
9699;DHT22;10089;47.876;8.346;2023-12-14T14:22:49;3.70;99.90
9699;DHT22;10089;47.876;8.346;2023-12-14T14:25:15;3.60;99.90
9699;DHT22;10089;47.876;8.346;2023-12-14T14:27:41;4.70;99.90
9699;DHT22;10089;47.876;8.346;2023-12-14T14:30:07;6.10;99.90
9699;DHT22;10089;47.876;8.346;2023-12-14T14:32:33;4.90;99.90
9699;DHT22;10089;47.876;8.346;2023-12-14T14:35:00;7.20;99.90
9699;DHT22;10089;47.876;8.346;2023-12-14T14:37:26;5.80;99.90
9699;DHT22;10089;47.876;8.346;2023-12-14T14:39:52;5.70;99.90
9699;DHT22;10089;47.876;8.346;2023-12-14T14:42:17;6.70;99.90
9699;DHT22;10089;47.876;8.346;2023-12-14T14:44:43;5.20;99.90
9699;DHT22;10089;47.876;8.346;2023-12-14T14:47:09;4.30;99.90
9699;DHT22;10089;47.876;8.346;2023-12-14T14:49:34;6.40;99.90
9699;DHT22;10089;47.876;8.346;2023-12-14T14:52:00;4.60;99.90
9699;DHT22;10089;47.876;8.346;2023-12-14T14:54:26;6.20;99.90
9699;DHT22;10089;47.876;8.346;2023-12-14T14:56:51;7.00;99.90
9699;DHT22;10089;47.876;8.346;2023-12-14T14:59:17;3.70;99.90
9699;DHT22;10089;47.876;8.346;2023-12-14T15:01:43;5.40;99.90
9699;DHT22;10089;47.876;8.346;2023-12-14T15:04:10;5.20;99.90
9699;DHT22;10089;47.876;8.346;2023-12-14T15:06:36;3.70;99.90
9699;DHT22;10089;47.876;8.346;2023-12-14T15:09:02;6.20;99.90
9699;DHT22;10089;47.876;8.346;2023-12-14T15:11:28;4.50;99.90
9699;DHT22;10089;47.876;8.346;2023-12-14T15:13:53;5.30;99.90
9699;DHT22;10089;47.876;8.346;2023-12-14T15:16:19;6.30;99.90
9699;DHT22;10089;47.876;8.346;2023-12-14T15:18:50;3.30;99.90
9699;DHT22;10089;47.876;8.346;2023-12-14T15:21:16;5.20;99.90
9699;DHT22;10089;47.876;8.346;2023-12-14T15:23:41;2.90;99.90
9699;DHT22;10089;47.876;8.346;2023-12-14T15:26:09;4.30;99.90
9699;DHT22;10089;47.876;8.346;2023-12-14T15:28:37;3.20;99.90
9699;DHT22;10089;47.876;8.346;2023-12-14T15:31:03;6.30;99.90
9699;DHT22;10089;47.876;8.346;2023-12-14T15:33:28;4.20;99.90
9699;DHT22;10089;47.876;8.346;2023-12-14T15:35:54;4.30;99.90
9699;DHT22;10089;47.876;8.346;2023-12-14T15:38:20;3.80;99.90
9699;DHT22;10089;47.876;8.346;2023-12-14T15:40:45;3.80;99.90
9699;DHT22;10089;47.876;8.346;2023-12-14T15:43:11;6.80;99.90
9699;DHT22;10089;47.876;8.346;2023-12-14T15:45:36;4.10;99.90
9699;DHT22;10089;47.876;8.346;2023-12-14T15:48:03;5.40;99.90
9699;DHT22;10089;47.876;8.346;2023-12-14T15:50:29;5.60;99.90
9699;DHT22;10089;47.876;8.346;2023-12-14T15:52:54;4.90;99.90
9699;DHT22;10089;47.876;8.346;2023-12-14T15:55:20;3.30;99.90
9699;DHT22;10089;47.876;8.346;2023-12-14T15:57:48;5.20;99.90
9699;DHT22;10089;47.876;8.346;2023-12-14T16:00:14;4.90;99.90
9699;DHT22;10089;47.876;8.346;2023-12-14T16:02:40;4.10;99.90
9699;DHT22;10089;47.876;8.346;2023-12-14T16:05:06;3.00;99.90
9699;DHT22;10089;47.876;8.346;2023-12-14T16:07:34;4.00;99.90
9699;DHT22;10089;47.876;8.346;2023-12-14T16:10:00;3.80;99.90
9699;DHT22;10089;47.876;8.346;2023-12-14T16:12:25;3.90;99.90